sensor_id;sensor_type;location;lat;lon;timestamp;P1;durP1;ratioP1;P2;durP2;ratioP2
10977;SDS011;5542;48.272;10.794;2022-07-29T00:01:36;2.03;;;1.92;;
10977;SDS011;5542;48.272;10.794;2022-07-29T00:04:02;3.28;;;2.70;;
10977;SDS011;5542;48.272;10.794;2022-07-29T00:06:29;2.47;;;2.28;;
10977;SDS011;5542;48.272;10.794;2022-07-29T00:08:56;2.05;;;1.95;;
10977;SDS011;5542;48.272;10.794;2022-07-29T00:11:22;1.90;;;1.80;;
10977;SDS011;5542;48.272;10.794;2022-07-29T00:13:49;2.20;;;2.10;;
10977;SDS011;5542;48.272;10.794;2022-07-29T00:16:15;1.92;;;1.83;;
10977;SDS011;5542;48.272;10.794;2022-07-29T00:18:43;2.00;;;1.90;;
10977;SDS011;5542;48.272;10.794;2022-07-29T00:21:10;2.20;;;2.10;;
10977;SDS011;5542;48.272;10.794;2022-07-29T00:23:37;1.85;;;1.75;;
10977;SDS011;5542;48.272;10.794;2022-07-29T00:26:03;2.53;;;2.33;;
10977;SDS011;5542;48.272;10.794;2022-07-29T00:28:30;2.80;;;2.60;;
10977;SDS011;5542;48.272;10.794;2022-07-29T00:30:56;3.15;;;2.47;;
10977;SDS011;5542;48.272;10.794;2022-07-29T00:33:23;2.78;;;2.58;;
10977;SDS011;5542;48.272;10.794;2022-07-29T00:35:51;2.92;;;2.67;;
10977;SDS011;5542;48.272;10.794;2022-07-29T00:38:17;2.47;;;2.38;;
10977;SDS011;5542;48.272;10.794;2022-07-29T00:40:45;2.53;;;2.35;;
10977;SDS011;5542;48.272;10.794;2022-07-29T00:43:12;2.17;;;2.05;;
10977;SDS011;5542;48.272;10.794;2022-07-29T00:45:39;2.53;;;2.42;;
10977;SDS011;5542;48.272;10.794;2022-07-29T00:48:06;2.58;;;2.38;;
10977;SDS011;5542;48.272;10.794;2022-07-29T00:50:34;2.83;;;2.63;;
10977;SDS011;5542;48.272;10.794;2022-07-29T00:53:03;2.27;;;2.17;;
10977;SDS011;5542;48.272;10.794;2022-07-29T00:55:31;2.38;;;2.28;;
10977;SDS011;5542;48.272;10.794;2022-07-29T00:57:58;2.80;;;2.60;;
10977;SDS011;5542;48.272;10.794;2022-07-29T01:00:26;2.95;;;2.75;;
10977;SDS011;5542;48.272;10.794;2022-07-29T01:02:53;2.43;;;2.30;;
10977;SDS011;5542;48.272;10.794;2022-07-29T01:05:21;2.70;;;2.50;;
10977;SDS011;5542;48.272;10.794;2022-07-29T01:07:49;2.25;;;2.15;;
10977;SDS011;5542;48.272;10.794;2022-07-29T01:10:20;3.45;;;3.15;;
10977;SDS011;5542;48.272;10.794;2022-07-29T01:12:49;2.30;;;2.20;;
10977;SDS011;5542;48.272;10.794;2022-07-29T01:15:17;2.97;;;2.78;;
10977;SDS011;5542;48.272;10.794;2022-07-29T01:17:44;2.27;;;2.17;;
10977;SDS011;5542;48.272;10.794;2022-07-29T01:20:17;3.25;;;2.97;;
10977;SDS011;5542;48.272;10.794;2022-07-29T01:22:53;2.88;;;2.50;;
10977;SDS011;5542;48.272;10.794;2022-07-29T01:25:48;3.10;;;2.90;;
10977;SDS011;5542;48.272;10.794;2022-07-29T01:28:34;3.45;;;3.15;;
10977;SDS011;5542;48.272;10.794;2022-07-29T01:31:13;2.70;;;2.50;;
10977;SDS011;5542;48.272;10.794;2022-07-29T01:33:45;3.10;;;2.90;;
10977;SDS011;5542;48.272;10.794;2022-07-29T01:36:17;2.60;;;2.40;;
10977;SDS011;5542;48.272;10.794;2022-07-29T01:38:52;2.70;;;2.60;;
10977;SDS011;5542;48.272;10.794;2022-07-29T01:41:25;3.08;;;2.88;;
10977;SDS011;5542;48.272;10.794;2022-07-29T01:43:59;3.20;;;2.90;;
10977;SDS011;5542;48.272;10.794;2022-07-29T01:46:30;2.57;;;2.40;;
10977;SDS011;5542;48.272;10.794;2022-07-29T01:49:00;2.60;;;2.40;;
10977;SDS011;5542;48.272;10.794;2022-07-29T01:51:33;2.70;;;2.50;;
10977;SDS011;5542;48.272;10.794;2022-07-29T01:54:06;2.70;;;2.50;;
10977;SDS011;5542;48.272;10.794;2022-07-29T01:56:38;2.38;;;2.28;;
10977;SDS011;5542;48.272;10.794;2022-07-29T01:59:07;2.40;;;2.30;;
10977;SDS011;5542;48.272;10.794;2022-07-29T02:01:35;2.70;;;2.50;;
10977;SDS011;5542;48.272;10.794;2022-07-29T02:04:04;2.22;;;2.13;;
10977;SDS011;5542;48.272;10.794;2022-07-29T02:06:34;2.42;;;2.22;;
10977;SDS011;5542;48.272;10.794;2022-07-29T02:09:04;2.63;;;2.42;;
10977;SDS011;5542;48.272;10.794;2022-07-29T02:11:33;2.63;;;2.42;;
10977;SDS011;5542;48.272;10.794;2022-07-29T02:14:01;1.70;;;1.60;;
10977;SDS011;5542;48.272;10.794;2022-07-29T02:16:31;1.80;;;1.70;;
10977;SDS011;5542;48.272;10.794;2022-07-29T02:19:01;1.63;;;1.52;;
10977;SDS011;5542;48.272;10.794;2022-07-29T02:21:29;1.40;;;1.30;;
10977;SDS011;5542;48.272;10.794;2022-07-29T02:23:59;1.63;;;1.52;;
10977;SDS011;5542;48.272;10.794;2022-07-29T02:26:26;1.10;;;1.10;;
10977;SDS011;5542;48.272;10.794;2022-07-29T02:28:56;1.25;;;1.25;;
10977;SDS011;5542;48.272;10.794;2022-07-29T02:31:26;1.80;;;1.65;;
10977;SDS011;5542;48.272;10.794;2022-07-29T02:33:59;2.08;;;1.83;;
10977;SDS011;5542;48.272;10.794;2022-07-29T02:36:28;1.45;;;1.40;;
10977;SDS011;5542;48.272;10.794;2022-07-29T02:38:57;1.23;;;1.23;;
10977;SDS011;5542;48.272;10.794;2022-07-29T02:41:27;1.10;;;1.10;;
10977;SDS011;5542;48.272;10.794;2022-07-29T02:43:57;1.20;;;1.20;;
10977;SDS011;5542;48.272;10.794;2022-07-29T02:46:30;1.40;;;1.40;;
10977;SDS011;5542;48.272;10.794;2022-07-29T02:49:01;1.20;;;1.20;;
10977;SDS011;5542;48.272;10.794;2022-07-29T02:51:34;1.30;;;1.30;;
10977;SDS011;5542;48.272;10.794;2022-07-29T02:54:10;1.10;;;1.10;;
10977;SDS011;5542;48.272;10.794;2022-07-29T02:56:44;1.25;;;1.17;;
10977;SDS011;5542;48.272;10.794;2022-07-29T02:59:13;1.30;;;1.20;;
10977;SDS011;5542;48.272;10.794;2022-07-29T03:01:44;1.67;;;1.58;;
10977;SDS011;5542;48.272;10.794;2022-07-29T03:04:13;1.23;;;1.23;;
10977;SDS011;5542;48.272;10.794;2022-07-29T03:06:41;1.20;;;1.20;;
10977;SDS011;5542;48.272;10.794;2022-07-29T03:09:10;1.17;;;1.17;;
10977;SDS011;5542;48.272;10.794;2022-07-29T03:11:38;0.90;;;0.90;;
10977;SDS011;5542;48.272;10.794;2022-07-29T03:14:05;1.35;;;1.25;;
10977;SDS011;5542;48.272;10.794;2022-07-29T03:16:33;1.08;;;1.08;;
10977;SDS011;5542;48.272;10.794;2022-07-29T03:19:01;1.17;;;1.17;;
10977;SDS011;5542;48.272;10.794;2022-07-29T03:21:30;0.93;;;0.93;;
10977;SDS011;5542;48.272;10.794;2022-07-29T03:23:57;1.10;;;1.10;;
10977;SDS011;5542;48.272;10.794;2022-07-29T03:26:24;1.42;;;1.33;;
10977;SDS011;5542;48.272;10.794;2022-07-29T03:28:51;1.08;;;1.08;;
10977;SDS011;5542;48.272;10.794;2022-07-29T03:31:17;1.38;;;1.27;;
10977;SDS011;5542;48.272;10.794;2022-07-29T03:33:44;1.10;;;1.10;;
10977;SDS011;5542;48.272;10.794;2022-07-29T03:36:10;1.05;;;1.05;;
10977;SDS011;5542;48.272;10.794;2022-07-29T03:38:39;1.33;;;1.33;;
10977;SDS011;5542;48.272;10.794;2022-07-29T03:41:09;1.23;;;1.20;;
10977;SDS011;5542;48.272;10.794;2022-07-29T03:43:38;1.25;;;1.25;;
10977;SDS011;5542;48.272;10.794;2022-07-29T03:46:07;1.80;;;1.70;;
10977;SDS011;5542;48.272;10.794;2022-07-29T03:48:36;2.50;;;2.30;;
10977;SDS011;5542;48.272;10.794;2022-07-29T03:51:05;2.30;;;2.10;;
10977;SDS011;5542;48.272;10.794;2022-07-29T03:53:32;1.80;;;1.70;;
10977;SDS011;5542;48.272;10.794;2022-07-29T03:56:01;1.73;;;1.63;;
10977;SDS011;5542;48.272;10.794;2022-07-29T03:58:29;1.73;;;1.63;;
10977;SDS011;5542;48.272;10.794;2022-07-29T04:00:57;1.20;;;1.20;;
10977;SDS011;5542;48.272;10.794;2022-07-29T04:03:24;1.23;;;1.23;;
10977;SDS011;5542;48.272;10.794;2022-07-29T04:05:58;1.30;;;1.30;;
10977;SDS011;5542;48.272;10.794;2022-07-29T04:08:25;1.75;;;1.65;;
10977;SDS011;5542;48.272;10.794;2022-07-29T04:10:52;1.33;;;1.23;;
10977;SDS011;5542;48.272;10.794;2022-07-29T04:13:20;1.15;;;1.15;;
10977;SDS011;5542;48.272;10.794;2022-07-29T04:15:46;1.33;;;1.27;;
10977;SDS011;5542;48.272;10.794;2022-07-29T04:18:13;1.20;;;1.20;;
10977;SDS011;5542;48.272;10.794;2022-07-29T04:20:39;1.20;;;1.20;;
10977;SDS011;5542;48.272;10.794;2022-07-29T04:23:06;1.30;;;1.30;;
10977;SDS011;5542;48.272;10.794;2022-07-29T04:25:33;1.30;;;1.30;;
10977;SDS011;5542;48.272;10.794;2022-07-29T04:28:02;1.30;;;1.20;;
10977;SDS011;5542;48.272;10.794;2022-07-29T04:30:30;1.30;;;1.30;;
10977;SDS011;5542;48.272;10.794;2022-07-29T04:32:58;1.50;;;1.40;;
10977;SDS011;5542;48.272;10.794;2022-07-29T04:35:25;1.38;;;1.38;;
10977;SDS011;5542;48.272;10.794;2022-07-29T04:37:52;1.33;;;1.27;;
10977;SDS011;5542;48.272;10.794;2022-07-29T04:40:19;1.47;;;1.40;;
10977;SDS011;5542;48.272;10.794;2022-07-29T04:42:46;1.25;;;1.25;;
10977;SDS011;5542;48.272;10.794;2022-07-29T04:45:12;1.50;;;1.40;;
10977;SDS011;5542;48.272;10.794;2022-07-29T04:47:40;1.10;;;1.10;;
10977;SDS011;5542;48.272;10.794;2022-07-29T04:50:08;1.25;;;1.25;;
10977;SDS011;5542;48.272;10.794;2022-07-29T04:52:35;1.10;;;1.10;;
10977;SDS011;5542;48.272;10.794;2022-07-29T04:55:02;0.98;;;0.98;;
10977;SDS011;5542;48.272;10.794;2022-07-29T04:57:30;1.42;;;1.33;;
10977;SDS011;5542;48.272;10.794;2022-07-29T04:59:57;1.70;;;1.60;;
10977;SDS011;5542;48.272;10.794;2022-07-29T05:02:24;1.23;;;1.23;;
10977;SDS011;5542;48.272;10.794;2022-07-29T05:04:52;1.35;;;1.25;;
10977;SDS011;5542;48.272;10.794;2022-07-29T05:07:18;1.70;;;1.60;;
10977;SDS011;5542;48.272;10.794;2022-07-29T05:09:45;1.25;;;1.25;;
10977;SDS011;5542;48.272;10.794;2022-07-29T05:12:11;1.35;;;1.35;;
10977;SDS011;5542;48.272;10.794;2022-07-29T05:14:38;1.80;;;1.70;;
10977;SDS011;5542;48.272;10.794;2022-07-29T05:17:04;1.85;;;1.75;;
10977;SDS011;5542;48.272;10.794;2022-07-29T05:19:31;1.60;;;1.50;;
10977;SDS011;5542;48.272;10.794;2022-07-29T05:21:59;1.80;;;1.65;;
10977;SDS011;5542;48.272;10.794;2022-07-29T05:24:26;2.22;;;2.03;;
10977;SDS011;5542;48.272;10.794;2022-07-29T05:26:52;1.80;;;1.70;;
10977;SDS011;5542;48.272;10.794;2022-07-29T05:29:19;1.95;;;1.85;;
10977;SDS011;5542;48.272;10.794;2022-07-29T05:31:45;1.48;;;1.38;;
10977;SDS011;5542;48.272;10.794;2022-07-29T05:34:12;1.40;;;1.40;;
10977;SDS011;5542;48.272;10.794;2022-07-29T05:36:38;2.00;;;1.90;;
10977;SDS011;5542;48.272;10.794;2022-07-29T05:39:06;1.90;;;1.80;;
10977;SDS011;5542;48.272;10.794;2022-07-29T05:41:33;1.83;;;1.73;;
10977;SDS011;5542;48.272;10.794;2022-07-29T05:43:59;1.50;;;1.50;;
10977;SDS011;5542;48.272;10.794;2022-07-29T05:46:27;3.85;;;1.80;;
10977;SDS011;5542;48.272;10.794;2022-07-29T05:48:53;1.42;;;1.35;;
10977;SDS011;5542;48.272;10.794;2022-07-29T05:51:21;1.60;;;1.50;;
10977;SDS011;5542;48.272;10.794;2022-07-29T05:53:47;1.58;;;1.48;;
10977;SDS011;5542;48.272;10.794;2022-07-29T05:56:15;1.80;;;1.70;;
10977;SDS011;5542;48.272;10.794;2022-07-29T05:58:42;2.15;;;1.55;;
10977;SDS011;5542;48.272;10.794;2022-07-29T06:01:08;1.52;;;1.42;;
10977;SDS011;5542;48.272;10.794;2022-07-29T06:03:35;1.45;;;1.35;;
10977;SDS011;5542;48.272;10.794;2022-07-29T06:06:02;1.13;;;1.13;;
10977;SDS011;5542;48.272;10.794;2022-07-29T06:08:29;1.30;;;1.20;;
10977;SDS011;5542;48.272;10.794;2022-07-29T06:10:55;1.67;;;1.57;;
10977;SDS011;5542;48.272;10.794;2022-07-29T06:13:23;1.63;;;1.53;;
10977;SDS011;5542;48.272;10.794;2022-07-29T06:15:50;1.83;;;1.65;;
10977;SDS011;5542;48.272;10.794;2022-07-29T06:18:17;3.95;;;1.83;;
10977;SDS011;5542;48.272;10.794;2022-07-29T06:20:45;1.63;;;1.52;;
10977;SDS011;5542;48.272;10.794;2022-07-29T06:23:12;2.00;;;1.90;;
10977;SDS011;5542;48.272;10.794;2022-07-29T06:25:39;2.10;;;1.90;;
10977;SDS011;5542;48.272;10.794;2022-07-29T06:28:06;1.58;;;1.48;;
10977;SDS011;5542;48.272;10.794;2022-07-29T06:30:34;1.45;;;1.40;;
10977;SDS011;5542;48.272;10.794;2022-07-29T06:33:01;1.53;;;1.43;;
10977;SDS011;5542;48.272;10.794;2022-07-29T06:35:27;2.00;;;1.90;;
10977;SDS011;5542;48.272;10.794;2022-07-29T06:37:54;1.65;;;1.55;;
10977;SDS011;5542;48.272;10.794;2022-07-29T06:40:21;1.40;;;1.40;;
10977;SDS011;5542;48.272;10.794;2022-07-29T06:43:05;1.65;;;1.55;;
10977;SDS011;5542;48.272;10.794;2022-07-29T06:45:34;1.90;;;1.80;;
10977;SDS011;5542;48.272;10.794;2022-07-29T06:48:01;1.80;;;1.70;;
10977;SDS011;5542;48.272;10.794;2022-07-29T06:50:27;1.70;;;1.60;;
10977;SDS011;5542;48.272;10.794;2022-07-29T06:52:54;1.80;;;1.70;;
10977;SDS011;5542;48.272;10.794;2022-07-29T06:55:21;1.50;;;1.40;;
10977;SDS011;5542;48.272;10.794;2022-07-29T06:57:47;1.60;;;1.50;;
10977;SDS011;5542;48.272;10.794;2022-07-29T07:00:14;1.40;;;1.40;;
10977;SDS011;5542;48.272;10.794;2022-07-29T07:02:42;1.70;;;1.50;;
10977;SDS011;5542;48.272;10.794;2022-07-29T07:05:09;1.40;;;1.30;;
10977;SDS011;5542;48.272;10.794;2022-07-29T07:07:35;1.77;;;1.67;;
10977;SDS011;5542;48.272;10.794;2022-07-29T07:10:02;1.83;;;1.73;;
10977;SDS011;5542;48.272;10.794;2022-07-29T07:12:29;1.70;;;1.60;;
10977;SDS011;5542;48.272;10.794;2022-07-29T07:14:56;1.70;;;1.60;;
10977;SDS011;5542;48.272;10.794;2022-07-29T07:17:22;1.20;;;1.20;;
10977;SDS011;5542;48.272;10.794;2022-07-29T07:19:50;1.45;;;1.45;;
10977;SDS011;5542;48.272;10.794;2022-07-29T07:22:17;1.25;;;1.25;;
10977;SDS011;5542;48.272;10.794;2022-07-29T07:24:43;1.40;;;1.30;;
10977;SDS011;5542;48.272;10.794;2022-07-29T07:27:10;1.73;;;1.63;;
10977;SDS011;5542;48.272;10.794;2022-07-29T07:29:37;2.00;;;1.83;;
10977;SDS011;5542;48.272;10.794;2022-07-29T07:32:06;1.33;;;1.33;;
10977;SDS011;5542;48.272;10.794;2022-07-29T07:34:32;1.33;;;1.23;;
10977;SDS011;5542;48.272;10.794;2022-07-29T07:37:01;1.80;;;1.70;;
10977;SDS011;5542;48.272;10.794;2022-07-29T07:39:27;1.73;;;1.63;;
10977;SDS011;5542;48.272;10.794;2022-07-29T07:41:54;1.65;;;1.55;;
10977;SDS011;5542;48.272;10.794;2022-07-29T07:44:21;1.30;;;1.30;;
10977;SDS011;5542;48.272;10.794;2022-07-29T07:46:47;1.60;;;1.50;;
10977;SDS011;5542;48.272;10.794;2022-07-29T07:49:14;1.92;;;1.50;;
10977;SDS011;5542;48.272;10.794;2022-07-29T07:51:40;1.70;;;1.60;;
10977;SDS011;5542;48.272;10.794;2022-07-29T07:54:08;2.90;;;1.98;;
10977;SDS011;5542;48.272;10.794;2022-07-29T07:56:35;1.48;;;1.48;;
10977;SDS011;5542;48.272;10.794;2022-07-29T07:59:01;1.85;;;1.73;;
10977;SDS011;5542;48.272;10.794;2022-07-29T08:01:28;1.60;;;1.50;;
10977;SDS011;5542;48.272;10.794;2022-07-29T08:03:55;1.75;;;1.65;;
10977;SDS011;5542;48.272;10.794;2022-07-29T08:06:21;2.00;;;1.80;;
10977;SDS011;5542;48.272;10.794;2022-07-29T08:08:49;1.70;;;1.60;;
10977;SDS011;5542;48.272;10.794;2022-07-29T08:11:18;2.00;;;1.90;;
10977;SDS011;5542;48.272;10.794;2022-07-29T08:13:46;1.92;;;1.83;;
10977;SDS011;5542;48.272;10.794;2022-07-29T08:16:12;1.98;;;1.88;;
10977;SDS011;5542;48.272;10.794;2022-07-29T08:18:40;1.65;;;1.55;;
10977;SDS011;5542;48.272;10.794;2022-07-29T08:21:08;1.40;;;1.40;;
10977;SDS011;5542;48.272;10.794;2022-07-29T08:23:34;1.80;;;1.70;;
10977;SDS011;5542;48.272;10.794;2022-07-29T08:26:03;1.65;;;1.50;;
10977;SDS011;5542;48.272;10.794;2022-07-29T08:28:32;1.65;;;1.52;;
10977;SDS011;5542;48.272;10.794;2022-07-29T08:30:58;1.52;;;1.52;;
10977;SDS011;5542;48.272;10.794;2022-07-29T08:33:25;1.40;;;1.40;;
10977;SDS011;5542;48.272;10.794;2022-07-29T08:35:51;1.80;;;1.70;;
10977;SDS011;5542;48.272;10.794;2022-07-29T08:38:18;1.53;;;1.43;;
10977;SDS011;5542;48.272;10.794;2022-07-29T08:40:44;2.40;;;2.30;;
10977;SDS011;5542;48.272;10.794;2022-07-29T08:43:11;1.70;;;1.60;;
10977;SDS011;5542;48.272;10.794;2022-07-29T08:45:42;1.90;;;1.80;;
10977;SDS011;5542;48.272;10.794;2022-07-29T08:48:11;1.60;;;1.50;;
10977;SDS011;5542;48.272;10.794;2022-07-29T08:50:38;1.88;;;1.77;;
10977;SDS011;5542;48.272;10.794;2022-07-29T08:53:05;1.90;;;1.80;;
10977;SDS011;5542;48.272;10.794;2022-07-29T08:55:33;1.80;;;1.70;;
10977;SDS011;5542;48.272;10.794;2022-07-29T08:58:00;2.22;;;2.13;;
10977;SDS011;5542;48.272;10.794;2022-07-29T09:00:27;2.10;;;2.00;;
10977;SDS011;5542;48.272;10.794;2022-07-29T09:02:57;1.83;;;1.73;;
10977;SDS011;5542;48.272;10.794;2022-07-29T09:05:25;1.85;;;1.75;;
10977;SDS011;5542;48.272;10.794;2022-07-29T09:07:52;2.08;;;1.98;;
10977;SDS011;5542;48.272;10.794;2022-07-29T09:10:19;2.17;;;2.00;;
10977;SDS011;5542;48.272;10.794;2022-07-29T09:12:46;2.10;;;2.00;;
10977;SDS011;5542;48.272;10.794;2022-07-29T09:15:13;2.60;;;2.40;;
10977;SDS011;5542;48.272;10.794;2022-07-29T09:17:41;3.28;;;2.22;;
10977;SDS011;5542;48.272;10.794;2022-07-29T09:20:10;2.25;;;2.15;;
10977;SDS011;5542;48.272;10.794;2022-07-29T09:22:38;1.92;;;1.83;;
10977;SDS011;5542;48.272;10.794;2022-07-29T09:25:05;2.50;;;2.30;;
10977;SDS011;5542;48.272;10.794;2022-07-29T09:27:32;2.10;;;2.00;;
10977;SDS011;5542;48.272;10.794;2022-07-29T09:30:00;1.88;;;1.77;;
10977;SDS011;5542;48.272;10.794;2022-07-29T09:32:30;2.05;;;1.92;;
10977;SDS011;5542;48.272;10.794;2022-07-29T09:35:18;2.30;;;2.20;;
10977;SDS011;5542;48.272;10.794;2022-07-29T09:37:46;2.38;;;2.17;;
10977;SDS011;5542;48.272;10.794;2022-07-29T09:40:15;2.38;;;2.20;;
10977;SDS011;5542;48.272;10.794;2022-07-29T09:42:42;2.47;;;2.38;;
10977;SDS011;5542;48.272;10.794;2022-07-29T09:45:10;2.95;;;2.70;;
10977;SDS011;5542;48.272;10.794;2022-07-29T09:47:41;2.60;;;2.45;;
10977;SDS011;5542;48.272;10.794;2022-07-29T09:50:11;2.42;;;2.33;;
10977;SDS011;5542;48.272;10.794;2022-07-29T09:52:47;2.33;;;2.22;;
10977;SDS011;5542;48.272;10.794;2022-07-29T09:55:14;3.43;;;2.73;;
10977;SDS011;5542;48.272;10.794;2022-07-29T09:57:42;2.20;;;2.05;;
10977;SDS011;5542;48.272;10.794;2022-07-29T10:00:09;3.13;;;2.22;;
10977;SDS011;5542;48.272;10.794;2022-07-29T10:02:38;2.55;;;2.42;;
10977;SDS011;5542;48.272;10.794;2022-07-29T10:05:06;2.75;;;2.40;;
10977;SDS011;5542;48.272;10.794;2022-07-29T10:07:44;2.57;;;2.37;;
10977;SDS011;5542;48.272;10.794;2022-07-29T10:10:17;2.57;;;2.40;;
10977;SDS011;5542;48.272;10.794;2022-07-29T10:12:50;2.45;;;2.22;;
10977;SDS011;5542;48.272;10.794;2022-07-29T10:15:18;2.40;;;2.30;;
10977;SDS011;5542;48.272;10.794;2022-07-29T10:17:46;2.27;;;2.17;;
10977;SDS011;5542;48.272;10.794;2022-07-29T10:20:15;2.28;;;2.17;;
10977;SDS011;5542;48.272;10.794;2022-07-29T10:22:48;2.57;;;2.37;;
10977;SDS011;5542;48.272;10.794;2022-07-29T10:25:17;2.70;;;2.53;;
10977;SDS011;5542;48.272;10.794;2022-07-29T10:27:45;2.47;;;2.38;;
10977;SDS011;5542;48.272;10.794;2022-07-29T10:30:13;2.13;;;1.90;;
10977;SDS011;5542;48.272;10.794;2022-07-29T10:32:46;2.20;;;2.10;;
10977;SDS011;5542;48.272;10.794;2022-07-29T10:35:27;2.50;;;2.40;;
10977;SDS011;5542;48.272;10.794;2022-07-29T10:38:10;2.50;;;2.30;;
10977;SDS011;5542;48.272;10.794;2022-07-29T10:40:57;2.90;;;2.40;;
10977;SDS011;5542;48.272;10.794;2022-07-29T10:43:51;2.42;;;2.33;;
10977;SDS011;5542;48.272;10.794;2022-07-29T10:46:21;2.40;;;2.20;;
10977;SDS011;5542;48.272;10.794;2022-07-29T10:49:04;2.33;;;2.22;;
10977;SDS011;5542;48.272;10.794;2022-07-29T10:51:54;2.50;;;2.40;;
10977;SDS011;5542;48.272;10.794;2022-07-29T10:54:44;2.50;;;2.30;;
10977;SDS011;5542;48.272;10.794;2022-07-29T10:57:21;1.90;;;1.80;;
10977;SDS011;5542;48.272;10.794;2022-07-29T10:59:51;2.72;;;2.53;;
10977;SDS011;5542;48.272;10.794;2022-07-29T11:02:57;2.30;;;2.20;;
10977;SDS011;5542;48.272;10.794;2022-07-29T11:05:24;2.28;;;2.17;;
10977;SDS011;5542;48.272;10.794;2022-07-29T11:13:59;2.30;;;2.20;;
10977;SDS011;5542;48.272;10.794;2022-07-29T11:16:28;2.47;;;2.28;;
10977;SDS011;5542;48.272;10.794;2022-07-29T11:19:34;2.67;;;2.05;;
10977;SDS011;5542;48.272;10.794;2022-07-29T11:22:03;2.20;;;2.10;;
10977;SDS011;5542;48.272;10.794;2022-07-29T11:24:34;2.25;;;2.15;;
10977;SDS011;5542;48.272;10.794;2022-07-29T11:27:11;2.30;;;2.20;;
10977;SDS011;5542;48.272;10.794;2022-07-29T11:29:47;2.25;;;2.15;;
10977;SDS011;5542;48.272;10.794;2022-07-29T11:32:16;2.53;;;2.38;;
10977;SDS011;5542;48.272;10.794;2022-07-29T11:34:44;2.28;;;2.17;;
10977;SDS011;5542;48.272;10.794;2022-07-29T11:42:50;2.20;;;2.10;;
10977;SDS011;5542;48.272;10.794;2022-07-29T11:45:21;2.10;;;2.00;;
10977;SDS011;5542;48.272;10.794;2022-07-29T11:47:57;2.15;;;2.00;;
10977;SDS011;5542;48.272;10.794;2022-07-29T11:50:29;2.30;;;2.08;;
10977;SDS011;5542;48.272;10.794;2022-07-29T11:52:58;2.00;;;1.90;;
10977;SDS011;5542;48.272;10.794;2022-07-29T11:55:26;2.10;;;2.00;;
10977;SDS011;5542;48.272;10.794;2022-07-29T11:57:54;2.47;;;2.27;;
10977;SDS011;5542;48.272;10.794;2022-07-29T12:00:26;2.40;;;2.30;;
10977;SDS011;5542;48.272;10.794;2022-07-29T12:02:55;2.08;;;1.98;;
10977;SDS011;5542;48.272;10.794;2022-07-29T12:05:30;2.50;;;2.30;;
10977;SDS011;5542;48.272;10.794;2022-07-29T12:08:04;1.90;;;1.80;;
10977;SDS011;5542;48.272;10.794;2022-07-29T12:10:31;2.10;;;2.00;;
10977;SDS011;5542;48.272;10.794;2022-07-29T12:12:58;1.80;;;1.70;;
10977;SDS011;5542;48.272;10.794;2022-07-29T12:15:26;1.80;;;1.70;;
10977;SDS011;5542;48.272;10.794;2022-07-29T12:17:53;2.33;;;2.23;;
10977;SDS011;5542;48.272;10.794;2022-07-29T12:20:23;2.33;;;2.20;;
10977;SDS011;5542;48.272;10.794;2022-07-29T12:22:50;2.80;;;2.60;;
10977;SDS011;5542;48.272;10.794;2022-07-29T12:25:18;2.35;;;2.25;;
10977;SDS011;5542;48.272;10.794;2022-07-29T12:27:45;2.40;;;2.20;;
10977;SDS011;5542;48.272;10.794;2022-07-29T12:30:13;1.98;;;1.88;;
10977;SDS011;5542;48.272;10.794;2022-07-29T12:32:44;2.13;;;2.00;;
10977;SDS011;5542;48.272;10.794;2022-07-29T12:35:12;2.20;;;2.10;;
10977;SDS011;5542;48.272;10.794;2022-07-29T12:37:41;2.15;;;2.05;;
10977;SDS011;5542;48.272;10.794;2022-07-29T12:40:10;1.73;;;1.63;;
10977;SDS011;5542;48.272;10.794;2022-07-29T12:42:38;1.75;;;1.65;;
10977;SDS011;5542;48.272;10.794;2022-07-29T12:45:06;2.40;;;2.20;;
10977;SDS011;5542;48.272;10.794;2022-07-29T12:47:33;2.00;;;1.90;;
10977;SDS011;5542;48.272;10.794;2022-07-29T12:50:18;2.88;;;2.40;;
10977;SDS011;5542;48.272;10.794;2022-07-29T12:52:45;2.05;;;1.95;;
10977;SDS011;5542;48.272;10.794;2022-07-29T12:55:12;2.00;;;1.90;;
10977;SDS011;5542;48.272;10.794;2022-07-29T12:57:49;1.65;;;1.55;;
10977;SDS011;5542;48.272;10.794;2022-07-29T13:00:21;1.48;;;1.40;;
10977;SDS011;5542;48.272;10.794;2022-07-29T13:02:55;2.25;;;2.15;;
10977;SDS011;5542;48.272;10.794;2022-07-29T13:05:23;1.92;;;1.83;;
10977;SDS011;5542;48.272;10.794;2022-07-29T13:07:50;1.90;;;1.80;;
10977;SDS011;5542;48.272;10.794;2022-07-29T13:10:17;1.77;;;1.67;;
10977;SDS011;5542;48.272;10.794;2022-07-29T13:13:01;1.77;;;1.67;;
10977;SDS011;5542;48.272;10.794;2022-07-29T13:15:29;2.30;;;2.10;;
10977;SDS011;5542;48.272;10.794;2022-07-29T13:17:58;1.88;;;1.77;;
10977;SDS011;5542;48.272;10.794;2022-07-29T13:20:26;2.00;;;1.90;;
10977;SDS011;5542;48.272;10.794;2022-07-29T13:22:55;1.98;;;1.88;;
10977;SDS011;5542;48.272;10.794;2022-07-29T13:25:26;1.48;;;1.38;;
10977;SDS011;5542;48.272;10.794;2022-07-29T13:27:53;2.00;;;1.80;;
10977;SDS011;5542;48.272;10.794;2022-07-29T13:30:20;1.63;;;1.60;;
10977;SDS011;5542;48.272;10.794;2022-07-29T13:32:48;2.20;;;2.10;;
10977;SDS011;5542;48.272;10.794;2022-07-29T13:35:16;2.10;;;2.00;;
10977;SDS011;5542;48.272;10.794;2022-07-29T13:37:43;1.90;;;1.80;;
10977;SDS011;5542;48.272;10.794;2022-07-29T13:40:11;2.00;;;1.90;;
10977;SDS011;5542;48.272;10.794;2022-07-29T13:42:39;2.22;;;2.03;;
10977;SDS011;5542;48.272;10.794;2022-07-29T13:45:06;2.13;;;2.03;;
10977;SDS011;5542;48.272;10.794;2022-07-29T13:47:34;2.25;;;2.05;;
10977;SDS011;5542;48.272;10.794;2022-07-29T13:50:01;1.90;;;1.80;;
10977;SDS011;5542;48.272;10.794;2022-07-29T13:52:29;2.30;;;2.20;;
10977;SDS011;5542;48.272;10.794;2022-07-29T13:54:56;2.40;;;2.30;;
10977;SDS011;5542;48.272;10.794;2022-07-29T13:57:23;2.30;;;2.20;;
10977;SDS011;5542;48.272;10.794;2022-07-29T13:59:49;2.20;;;2.10;;
10977;SDS011;5542;48.272;10.794;2022-07-29T14:02:16;1.97;;;1.87;;
10977;SDS011;5542;48.272;10.794;2022-07-29T14:04:43;2.30;;;2.10;;
10977;SDS011;5542;48.272;10.794;2022-07-29T14:07:10;2.60;;;2.40;;
10977;SDS011;5542;48.272;10.794;2022-07-29T14:09:38;2.55;;;2.35;;
10977;SDS011;5542;48.272;10.794;2022-07-29T14:12:05;2.20;;;1.60;;
10977;SDS011;5542;48.272;10.794;2022-07-29T14:14:32;2.45;;;2.25;;
10977;SDS011;5542;48.272;10.794;2022-07-29T14:17:00;2.10;;;2.00;;
10977;SDS011;5542;48.272;10.794;2022-07-29T14:19:28;2.33;;;2.10;;
10977;SDS011;5542;48.272;10.794;2022-07-29T14:21:54;2.22;;;2.00;;
10977;SDS011;5542;48.272;10.794;2022-07-29T14:24:21;2.00;;;1.90;;
10977;SDS011;5542;48.272;10.794;2022-07-29T14:26:49;2.20;;;2.10;;
10977;SDS011;5542;48.272;10.794;2022-07-29T14:29:15;1.88;;;1.77;;
10977;SDS011;5542;48.272;10.794;2022-07-29T14:31:42;2.13;;;2.03;;
10977;SDS011;5542;48.272;10.794;2022-07-29T14:34:08;2.38;;;2.17;;
10977;SDS011;5542;48.272;10.794;2022-07-29T14:36:35;1.80;;;1.75;;
10977;SDS011;5542;48.272;10.794;2022-07-29T14:39:01;2.33;;;2.13;;
10977;SDS011;5542;48.272;10.794;2022-07-29T14:41:29;1.85;;;1.80;;
10977;SDS011;5542;48.272;10.794;2022-07-29T14:43:57;1.77;;;1.67;;
10977;SDS011;5542;48.272;10.794;2022-07-29T14:46:25;2.70;;;2.08;;
10977;SDS011;5542;48.272;10.794;2022-07-29T14:48:52;2.15;;;2.05;;
10977;SDS011;5542;48.272;10.794;2022-07-29T14:51:18;2.60;;;2.40;;
10977;SDS011;5542;48.272;10.794;2022-07-29T14:53:45;2.35;;;2.25;;
10977;SDS011;5542;48.272;10.794;2022-07-29T14:56:12;2.10;;;2.00;;
10977;SDS011;5542;48.272;10.794;2022-07-29T14:58:38;2.13;;;2.03;;
10977;SDS011;5542;48.272;10.794;2022-07-29T15:01:06;2.03;;;1.92;;
10977;SDS011;5542;48.272;10.794;2022-07-29T15:03:33;2.47;;;2.38;;
10977;SDS011;5542;48.272;10.794;2022-07-29T15:05:59;2.78;;;2.58;;
10977;SDS011;5542;48.272;10.794;2022-07-29T15:08:26;2.20;;;2.10;;
10977;SDS011;5542;48.272;10.794;2022-07-29T15:10:54;2.30;;;2.10;;